createdAt,value
2023-05-20T00:00:54.692Z,18.71
2023-05-20T00:03:21.919Z,19.71
2023-05-20T00:05:49.156Z,19.61
2023-05-20T00:08:16.294Z,20.32
2023-05-20T00:10:43.267Z,19.42
2023-05-20T00:13:10.369Z,16.58
2023-05-20T00:15:37.961Z,18.42
2023-05-20T00:18:05.362Z,18.23
2023-05-20T00:20:32.890Z,18.72
2023-05-20T00:23:00.241Z,16.05
2023-05-20T00:25:27.443Z,16.26
2023-05-20T00:27:54.530Z,17.59
2023-05-20T00:30:22.511Z,16.11
2023-05-20T00:32:49.653Z,15.78
2023-05-20T00:35:17.772Z,15.68
2023-05-20T00:37:45.593Z,15.62
2023-05-20T00:40:15.399Z,15.71
2023-05-20T00:42:43.294Z,18.78
2023-05-20T00:45:10.993Z,19.66
2023-05-20T00:47:38.633Z,16.49
2023-05-20T00:50:07.364Z,16.04
2023-05-20T00:52:34.396Z,16.16
2023-05-20T00:55:01.486Z,16.06
2023-05-20T00:57:28.526Z,15.82
2023-05-20T00:59:55.703Z,15.79
2023-05-20T01:02:22.835Z,16.19
2023-05-20T01:04:50.337Z,15.75
2023-05-20T01:07:17.893Z,15.58
2023-05-20T01:09:45.351Z,15.66
2023-05-20T01:12:18.319Z,15.64
2023-05-20T01:14:50.548Z,15.73
2023-05-20T01:17:18.363Z,15.61
2023-05-20T01:19:45.936Z,15.73
2023-05-20T01:22:13.682Z,16.62
2023-05-20T01:24:45.380Z,15.62
2023-05-20T01:27:13.693Z,15.62
2023-05-20T01:29:42.241Z,15.98
2023-05-20T01:32:14.935Z,15.63
2023-05-20T01:34:42.007Z,15.54
2023-05-20T01:37:09.424Z,15.73
2023-05-20T01:39:38.054Z,15.69
2023-05-20T01:42:05.483Z,15.69
2023-05-20T01:44:33.029Z,15.76
2023-05-20T01:47:00.509Z,15.68
2023-05-20T01:49:28.142Z,16.89
2023-05-20T01:51:56.213Z,19.94
2023-05-20T01:54:23.263Z,20.70
2023-05-20T01:56:50.436Z,21.07
2023-05-20T01:59:17.386Z,19.25
2023-05-20T02:01:44.430Z,15.90
2023-05-20T02:04:12.017Z,15.43
2023-05-20T02:06:39.214Z,16.50
2023-05-20T02:09:06.516Z,15.39
2023-05-20T02:11:33.512Z,15.20
2023-05-20T02:14:00.494Z,15.15
2023-05-20T02:16:28.449Z,15.27
2023-05-20T02:18:58.844Z,15.43
2023-05-20T02:21:26.013Z,15.80
2023-05-20T02:23:55.511Z,18.94
2023-05-20T02:26:25.744Z,19.81
2023-05-20T02:28:52.694Z,20.37
2023-05-20T02:31:24.505Z,20.64
2023-05-20T02:33:51.680Z,21.06
2023-05-20T02:36:18.716Z,21.15
2023-05-20T02:38:45.651Z,21.22
2023-05-20T02:41:12.679Z,21.40
2023-05-20T02:43:42.327Z,21.53
2023-05-20T02:46:09.339Z,21.58
2023-05-20T02:48:36.362Z,21.55
2023-05-20T02:51:04.663Z,21.64
2023-05-20T02:53:31.621Z,21.74
2023-05-20T02:55:58.576Z,21.75
2023-05-20T02:58:26.602Z,21.74
2023-05-20T03:00:54.009Z,21.79
2023-05-20T03:03:21.979Z,21.91
2023-05-20T03:05:49.135Z,22.00
2023-05-20T03:08:23.252Z,22.25
2023-05-20T03:10:51.002Z,21.95
2023-05-20T03:13:18.523Z,21.94
2023-05-20T03:15:45.691Z,22.06
2023-05-20T03:18:14.011Z,22.23
2023-05-20T03:20:41.857Z,22.35
2023-05-20T03:23:10.013Z,22.58
2023-05-20T03:25:37.806Z,22.72
2023-05-20T03:28:06.812Z,22.59
2023-05-20T03:30:35.479Z,22.58
2023-05-20T03:35:31.928Z,22.61
2023-05-20T03:38:01.953Z,22.80
2023-05-20T03:40:29.320Z,23.04
2023-05-20T03:42:56.645Z,22.87
2023-05-20T03:45:25.540Z,23.12
2023-05-20T03:48:07.348Z,23.27
2023-05-20T03:50:35.266Z,23.44
2023-05-20T03:53:02.745Z,23.76
2023-05-20T03:55:35.288Z,23.43
2023-05-20T03:58:03.130Z,23.06
2023-05-20T04:00:32.043Z,22.89
2023-05-20T04:02:59.721Z,23.23
2023-05-20T04:05:27.189Z,23.36
2023-05-20T04:07:54.989Z,23.26
2023-05-20T04:10:22.344Z,23.37
2023-05-20T04:12:50.911Z,23.01
2023-05-20T04:15:19.655Z,23.08
2023-05-20T04:17:54.852Z,23.10
2023-05-20T04:20:22.284Z,23.46
2023-05-20T04:22:54.229Z,23.44
2023-05-20T04:25:22.161Z,23.56
2023-05-20T04:27:49.920Z,23.79
2023-05-20T04:30:20.564Z,24.03
2023-05-20T04:32:48.603Z,24.30
2023-05-20T04:35:15.587Z,24.31
2023-05-20T04:37:53.314Z,24.22
2023-05-20T04:40:21.338Z,24.02
2023-05-20T04:42:48.332Z,24.00
2023-05-20T04:45:15.655Z,24.03
2023-05-20T04:47:44.588Z,24.19
2023-05-20T04:50:11.856Z,24.60
2023-05-20T04:52:42.095Z,24.92
2023-05-20T04:55:12.545Z,24.90
2023-05-20T04:57:42.587Z,25.07
2023-05-20T05:00:12.602Z,25.26
2023-05-20T05:02:39.890Z,25.50
2023-05-20T05:05:07.668Z,25.50
2023-05-20T05:07:35.075Z,24.17
2023-05-20T05:10:03.369Z,23.29
2023-05-20T05:12:31.320Z,23.58
2023-05-20T05:14:59.436Z,24.15
2023-05-20T05:17:28.959Z,24.43
2023-05-20T05:19:57.314Z,24.72
2023-05-20T05:22:24.737Z,24.19
2023-05-20T05:24:52.472Z,24.43
2023-05-20T05:27:19.501Z,25.09
2023-05-20T05:29:46.461Z,25.44
2023-05-20T05:32:13.676Z,25.56
2023-05-20T05:34:41.104Z,25.39
2023-05-20T05:37:08.263Z,25.54
2023-05-20T05:39:37.930Z,25.79
2023-05-20T05:42:05.946Z,25.66
2023-05-20T05:44:33.477Z,26.00
2023-05-20T05:47:00.589Z,26.08
2023-05-20T05:49:27.580Z,26.32
2023-05-20T05:51:54.616Z,26.63
2023-05-20T05:54:22.081Z,26.58
2023-05-20T05:56:53.848Z,26.25
2023-05-20T05:59:25.625Z,26.12
2023-05-20T06:02:14.898Z,26.21
2023-05-20T06:04:42.302Z,26.22
2023-05-20T06:07:10.021Z,26.38
2023-05-20T06:09:37.214Z,26.41
2023-05-20T06:12:04.668Z,26.51
2023-05-20T06:14:32.699Z,26.68
2023-05-20T06:16:59.858Z,27.06
2023-05-20T06:19:27.074Z,27.45
2023-05-20T06:21:54.117Z,27.57
2023-05-20T06:24:22.394Z,27.76
2023-05-20T06:26:52.600Z,27.74
2023-05-20T06:29:19.701Z,27.07
2023-05-20T06:31:46.690Z,27.51
2023-05-20T06:34:13.937Z,27.36
2023-05-20T06:36:41.620Z,27.03
2023-05-20T06:39:12.615Z,26.84
2023-05-20T06:41:43.166Z,26.95
2023-05-20T06:44:10.701Z,27.15
2023-05-20T06:46:52.967Z,26.97
2023-05-20T06:49:20.498Z,27.49
2023-05-20T06:51:48.500Z,27.63
2023-05-20T06:54:16.077Z,27.61
2023-05-20T06:56:44.544Z,28.19
2023-05-20T06:59:11.562Z,28.46
2023-05-20T07:01:39.361Z,28.79
2023-05-20T07:04:07.288Z,28.85
2023-05-20T07:06:34.836Z,28.77
2023-05-20T07:09:01.959Z,28.86
2023-05-20T07:11:28.964Z,29.00
2023-05-20T07:13:56.002Z,28.96
2023-05-20T07:16:25.103Z,28.99
2023-05-20T07:18:54.626Z,28.89
2023-05-20T07:21:21.612Z,29.02
2023-05-20T07:24:11.656Z,29.04
2023-05-20T07:26:38.728Z,29.12
2023-05-20T07:29:05.939Z,29.27
2023-05-20T07:31:33.623Z,29.66
2023-05-20T07:34:00.580Z,29.87
2023-05-20T07:36:28.105Z,30.03
2023-05-20T07:39:02.399Z,29.85
2023-05-20T07:41:34.264Z,29.99
2023-05-20T07:44:05.150Z,29.89
2023-05-20T07:46:33.236Z,29.68
2023-05-20T07:49:00.855Z,29.43
2023-05-20T07:51:27.954Z,29.41
2023-05-20T07:53:54.957Z,29.38
2023-05-20T07:56:25.275Z,29.21
2023-05-20T07:58:54.374Z,29.62
2023-05-20T08:01:22.175Z,30.12
2023-05-20T08:03:49.858Z,30.31
2023-05-20T08:06:25.790Z,30.23
2023-05-20T08:08:54.466Z,29.57
2023-05-20T08:11:25.150Z,29.48
2023-05-20T08:13:52.260Z,29.30
2023-05-20T08:16:21.714Z,29.14
2023-05-20T08:18:48.969Z,29.07
2023-05-20T08:21:16.114Z,29.36
2023-05-20T08:23:43.232Z,29.40
2023-05-20T08:26:10.195Z,29.74
2023-05-20T08:28:39.969Z,29.33
2023-05-20T08:31:07.581Z,29.63
2023-05-20T08:33:35.375Z,29.64
2023-05-20T08:36:02.664Z,29.26
2023-05-20T08:38:29.996Z,29.40
2023-05-20T08:40:57.667Z,29.37
2023-05-20T08:43:25.087Z,29.41
2023-05-20T08:45:55.134Z,29.82
2023-05-20T08:48:26.343Z,29.99
2023-05-20T08:50:53.661Z,29.84
2023-05-20T08:53:21.199Z,29.95
2023-05-20T08:56:00.990Z,30.15
2023-05-20T08:58:29.608Z,30.92
2023-05-20T09:00:56.598Z,30.61
2023-05-20T09:03:24.542Z,30.39
2023-05-20T09:05:53.164Z,29.93
2023-05-20T09:08:20.576Z,30.25
2023-05-20T09:10:47.591Z,30.52
2023-05-20T09:13:14.573Z,30.79
2023-05-20T09:15:41.826Z,30.51
2023-05-20T09:18:09.344Z,30.44
2023-05-20T09:20:37.754Z,30.57
2023-05-20T09:23:06.552Z,30.64
2023-05-20T09:25:33.866Z,30.88
2023-05-20T09:28:01.204Z,31.19
2023-05-20T09:30:28.353Z,31.65
2023-05-20T09:32:58.849Z,31.58
2023-05-20T09:35:46.791Z,31.49
2023-05-20T09:38:13.905Z,31.67
2023-05-20T09:40:41.648Z,31.40
2023-05-20T09:43:08.927Z,31.39
2023-05-20T09:45:39.787Z,31.38
2023-05-20T09:48:09.161Z,31.22
2023-05-20T09:50:36.758Z,31.04
2023-05-20T09:53:04.463Z,30.83
2023-05-20T09:55:32.172Z,31.21
2023-05-20T09:58:02.307Z,31.35
2023-05-20T10:00:29.292Z,31.42
2023-05-20T10:02:57.133Z,31.70
2023-05-20T10:05:36.824Z,32.04
2023-05-20T10:08:26.310Z,32.23
2023-05-20T10:11:25.442Z,31.38
2023-05-20T10:13:58.447Z,31.33
2023-05-20T10:16:39.060Z,31.80
2023-05-20T10:19:32.910Z,31.48
2023-05-20T10:22:04.304Z,31.51
2023-05-20T10:24:32.872Z,31.80
2023-05-20T10:27:02.945Z,25.97
2023-05-20T10:29:30.217Z,24.43
2023-05-20T10:31:57.285Z,24.24
2023-05-20T10:34:24.605Z,24.37
2023-05-20T10:36:54.655Z,24.15
2023-05-20T10:39:31.542Z,24.65
2023-05-20T10:42:09.443Z,25.55
2023-05-20T10:44:47.248Z,25.06
2023-05-20T10:49:47.612Z,25.14
2023-05-20T10:52:14.829Z,25.77
2023-05-20T10:54:56.840Z,26.31
2023-05-20T10:57:24.781Z,26.45
2023-05-20T10:59:51.911Z,26.60
2023-05-20T11:02:20.083Z,26.51
2023-05-20T11:04:47.326Z,26.35
2023-05-20T11:07:29.068Z,26.79
2023-05-20T11:09:56.923Z,26.59
2023-05-20T11:12:24.593Z,25.24
2023-05-20T11:14:51.955Z,25.74
2023-05-20T11:17:19.361Z,24.23
2023-05-20T11:19:47.528Z,24.25
2023-05-20T11:22:14.667Z,24.70
2023-05-20T11:24:41.703Z,26.25
2023-05-20T11:27:08.791Z,25.82
2023-05-20T11:29:35.727Z,24.63
2023-05-20T11:32:02.767Z,24.50
2023-05-20T11:34:36.995Z,24.19
2023-05-20T11:37:08.020Z,24.84
2023-05-20T11:39:35.071Z,24.39
2023-05-20T11:42:02.060Z,24.24
2023-05-20T11:44:29.125Z,24.60
2023-05-20T11:47:03.323Z,25.25
2023-05-20T11:49:31.067Z,25.42
2023-05-20T11:51:58.697Z,25.45
2023-05-20T11:54:26.314Z,25.07
2023-05-20T11:56:54.352Z,24.79
2023-05-20T11:59:22.099Z,24.77
2023-05-20T12:01:49.077Z,25.15
2023-05-20T12:04:20.207Z,25.25
2023-05-20T12:06:47.568Z,25.17
2023-05-20T12:09:14.897Z,25.54
2023-05-20T12:11:42.488Z,25.70
2023-05-20T12:14:09.670Z,25.49
2023-05-20T12:16:37.405Z,25.29
2023-05-20T12:19:04.629Z,25.52
2023-05-20T12:21:32.079Z,26.09
2023-05-20T12:23:59.589Z,25.66
2023-05-20T12:26:27.620Z,25.90
2023-05-20T12:28:55.223Z,25.70
2023-05-20T12:31:22.374Z,25.71
2023-05-20T12:33:49.412Z,27.58
2023-05-20T12:36:16.541Z,27.88
2023-05-20T12:38:43.571Z,28.26
2023-05-20T12:41:10.515Z,28.71
2023-05-20T12:43:37.776Z,28.68
2023-05-20T12:46:05.118Z,28.64
2023-05-20T12:48:32.108Z,28.59
2023-05-20T12:50:59.224Z,28.73
2023-05-20T12:53:26.272Z,28.67
2023-05-20T12:55:53.398Z,28.82
2023-05-20T12:58:20.609Z,28.88
2023-05-20T13:00:47.645Z,27.16
2023-05-20T13:03:15.113Z,24.89
2023-05-20T13:05:42.464Z,24.74
2023-05-20T13:08:10.362Z,24.86
2023-05-20T13:10:38.127Z,26.76
2023-05-20T13:13:05.609Z,28.74
2023-05-20T13:15:33.685Z,28.89
2023-05-20T13:18:01.800Z,28.03
2023-05-20T13:20:29.925Z,25.21
2023-05-20T13:22:56.879Z,24.49
2023-05-20T13:25:23.897Z,24.61
2023-05-20T13:27:51.177Z,24.73
2023-05-20T13:30:18.146Z,25.15
2023-05-20T13:32:45.275Z,26.07
2023-05-20T13:35:13.332Z,27.18
2023-05-20T13:37:40.178Z,26.55
2023-05-20T13:40:08.675Z,25.45
2023-05-20T13:42:35.641Z,25.24
2023-05-20T13:45:02.659Z,25.59
2023-05-20T13:47:29.725Z,25.63
2023-05-20T13:49:56.904Z,25.55
2023-05-20T13:52:24.010Z,25.61
2023-05-20T13:54:51.031Z,25.38
2023-05-20T13:57:18.083Z,25.30
2023-05-20T13:59:45.027Z,25.50
2023-05-20T14:02:12.053Z,25.71
2023-05-20T14:04:40.275Z,25.76
2023-05-20T14:07:09.594Z,25.74
2023-05-20T14:09:37.082Z,25.69
2023-05-20T14:12:05.271Z,25.58
2023-05-20T14:14:32.362Z,25.60
2023-05-20T14:16:59.700Z,25.45
2023-05-20T14:19:27.374Z,25.46
2023-05-20T14:21:54.607Z,25.48
2023-05-20T14:24:23.737Z,25.41
2023-05-20T14:26:51.173Z,25.27
2023-05-20T14:29:18.195Z,25.39
2023-05-20T14:31:45.247Z,24.96
2023-05-20T14:34:12.724Z,25.39
2023-05-20T14:36:39.750Z,25.62
2023-05-20T14:39:06.900Z,25.68
2023-05-20T14:41:33.892Z,25.46
2023-05-20T14:44:00.813Z,25.46
2023-05-20T14:46:27.977Z,25.68
2023-05-20T14:48:55.091Z,25.68
2023-05-20T14:51:22.134Z,25.54
2023-05-20T14:53:49.270Z,25.55
2023-05-20T14:56:16.200Z,25.26
2023-05-20T14:58:43.142Z,24.99
2023-05-20T15:01:10.374Z,24.44
2023-05-20T15:03:37.464Z,25.18
2023-05-20T15:06:04.537Z,25.49
2023-05-20T15:08:31.598Z,24.85
2023-05-20T15:10:58.732Z,24.51
2023-05-20T15:13:25.725Z,24.36
2023-05-20T15:15:53.611Z,24.83
2023-05-20T15:18:20.869Z,25.06
2023-05-20T15:20:47.863Z,25.11
2023-05-20T15:23:15.156Z,24.87
2023-05-20T15:25:42.094Z,24.97
2023-05-20T15:28:08.987Z,24.67
2023-05-20T15:30:36.337Z,24.41
2023-05-20T15:33:04.075Z,24.32
2023-05-20T15:35:31.229Z,24.49
2023-05-20T15:37:58.198Z,24.32
2023-05-20T15:40:25.148Z,24.72
2023-05-20T15:42:53.631Z,25.08
2023-05-20T15:45:20.859Z,24.73
2023-05-20T15:47:47.919Z,24.70
2023-05-20T15:50:15.069Z,24.88
2023-05-20T15:52:42.147Z,24.60
2023-05-20T15:55:10.069Z,24.53
2023-05-20T15:57:36.943Z,24.85
2023-05-20T16:00:07.176Z,25.01
2023-05-20T16:02:36.260Z,24.65
2023-05-20T16:05:04.622Z,25.05
2023-05-20T16:07:31.700Z,24.82
2023-05-20T16:09:58.657Z,24.32
2023-05-20T16:12:26.003Z,24.15
2023-05-20T16:14:52.949Z,23.81
2023-05-20T16:17:21.801Z,23.84
2023-05-20T16:19:48.846Z,24.24
2023-05-20T16:22:16.590Z,24.42
2023-05-20T16:24:44.041Z,23.99
2023-05-20T16:27:11.422Z,24.06
2023-05-20T16:29:39.983Z,24.16
2023-05-20T16:32:07.532Z,23.89
2023-05-20T16:34:34.725Z,23.18
2023-05-20T16:37:02.561Z,23.19
2023-05-20T16:39:29.556Z,23.19
2023-05-20T16:41:56.648Z,23.18
2023-05-20T16:44:23.647Z,22.89
2023-05-20T16:46:52.668Z,22.72
2023-05-20T16:49:21.335Z,22.52
2023-05-20T16:51:48.644Z,22.28
2023-05-20T16:54:15.873Z,21.82
2023-05-20T16:56:42.818Z,21.48
2023-05-20T16:59:09.768Z,21.29
2023-05-20T17:01:37.191Z,21.38
2023-05-20T17:04:04.840Z,21.40
2023-05-20T17:06:34.285Z,21.48
2023-05-20T17:09:04.191Z,21.23
2023-05-20T17:11:31.343Z,21.20
2023-05-20T17:13:58.552Z,21.21
2023-05-20T17:16:25.577Z,21.09
2023-05-20T17:18:53.933Z,20.90
2023-05-20T17:21:21.145Z,20.46
2023-05-20T17:23:48.316Z,20.33
2023-05-20T17:26:15.997Z,20.25
2023-05-20T17:28:43.133Z,20.66
2023-05-20T17:31:10.239Z,21.41
2023-05-20T17:33:37.250Z,20.20
2023-05-20T17:36:04.627Z,19.97
2023-05-20T17:38:33.981Z,19.48
2023-05-20T17:41:01.118Z,19.53
2023-05-20T17:43:28.615Z,19.49
2023-05-20T17:45:55.836Z,19.40
2023-05-20T17:48:25.445Z,19.47
2023-05-20T17:50:52.499Z,19.28
2023-05-20T17:53:21.958Z,19.03
2023-05-20T17:55:49.584Z,18.82
2023-05-20T17:58:17.146Z,18.62
2023-05-20T18:00:44.270Z,18.49
2023-05-20T18:03:11.808Z,18.28
2023-05-20T18:05:39.073Z,18.15
2023-05-20T18:08:06.069Z,18.04
2023-05-20T18:10:35.505Z,18.13
2023-05-20T18:13:02.994Z,18.03
2023-05-20T18:15:30.760Z,17.80
2023-05-20T18:17:58.155Z,17.70
2023-05-20T18:20:25.658Z,17.70
2023-05-20T18:22:58.327Z,17.24
2023-05-20T18:25:26.043Z,17.08
2023-05-20T18:27:53.081Z,16.89
2023-05-20T18:30:20.236Z,16.80
2023-05-20T18:32:47.576Z,16.66
2023-05-20T18:35:14.710Z,16.61
2023-05-20T18:37:41.745Z,16.52
2023-05-20T18:40:09.649Z,16.51
2023-05-20T18:42:37.574Z,16.29
2023-05-20T18:45:05.199Z,16.77
2023-05-20T18:47:33.844Z,16.72
2023-05-20T18:50:00.841Z,15.97
2023-05-20T18:52:27.830Z,15.69
2023-05-20T18:54:54.900Z,15.49
2023-05-20T18:57:22.822Z,18.02
2023-05-20T18:59:49.782Z,18.40
2023-05-20T19:02:17.488Z,18.83
2023-05-20T19:04:44.909Z,19.00
2023-05-20T19:07:12.142Z,19.22
2023-05-20T19:09:39.072Z,19.63
2023-05-20T19:12:06.972Z,19.92
2023-05-20T19:14:34.098Z,20.18
2023-05-20T19:17:01.576Z,20.12
2023-05-20T19:19:28.904Z,20.18
2023-05-20T19:21:56.168Z,20.11
2023-05-20T19:24:23.790Z,20.22
2023-05-20T19:26:51.794Z,20.07
2023-05-20T19:29:18.945Z,20.22
2023-05-20T19:31:46.239Z,20.35
2023-05-20T19:34:13.955Z,20.51
2023-05-20T19:36:44.528Z,20.61
2023-05-20T19:39:11.754Z,20.37
2023-05-20T19:41:38.984Z,20.49
2023-05-20T19:44:06.323Z,19.36
2023-05-20T19:46:34.606Z,15.94
2023-05-20T19:49:02.553Z,15.52
2023-05-20T19:51:29.556Z,15.64
2023-05-20T19:53:56.554Z,15.55
2023-05-20T19:56:24.365Z,15.41
2023-05-20T19:58:51.741Z,15.44
2023-05-20T20:01:18.944Z,15.30
2023-05-20T20:03:46.239Z,15.46
2023-05-20T20:06:14.389Z,15.54
2023-05-20T20:08:43.180Z,15.53
2023-05-20T20:11:10.416Z,15.35
2023-05-20T20:13:37.480Z,15.36
2023-05-20T20:16:06.686Z,15.36
2023-05-20T20:18:33.780Z,15.15
2023-05-20T20:21:05.439Z,15.18
2023-05-20T20:23:34.051Z,15.07
2023-05-20T20:26:02.091Z,15.12
2023-05-20T20:28:29.071Z,15.30
2023-05-20T20:30:56.207Z,15.20
2023-05-20T20:33:26.447Z,15.36
2023-05-20T20:35:57.003Z,15.17
2023-05-20T20:38:24.501Z,14.96
2023-05-20T20:40:53.837Z,14.91
2023-05-20T20:43:21.507Z,14.91
2023-05-20T20:45:50.799Z,15.00
2023-05-20T20:48:18.991Z,15.06
2023-05-20T20:50:48.059Z,14.92
2023-05-20T20:53:19.411Z,15.00
2023-05-20T20:55:46.545Z,15.26
2023-05-20T20:58:15.743Z,15.18
2023-05-20T21:00:44.570Z,15.18
2023-05-20T21:03:12.930Z,15.00
2023-05-20T21:05:40.161Z,15.01
2023-05-20T21:08:13.580Z,14.61
2023-05-20T21:10:40.710Z,14.69
2023-05-20T21:13:07.978Z,14.78
2023-05-20T21:15:35.844Z,14.62
2023-05-20T21:18:03.745Z,14.58
2023-05-20T21:20:30.861Z,14.26
2023-05-20T21:22:57.810Z,14.06
2023-05-20T21:25:25.272Z,13.96
2023-05-20T21:27:52.235Z,14.06
2023-05-20T21:30:20.364Z,14.06
2023-05-20T21:32:47.762Z,14.08
2023-05-20T21:35:14.863Z,14.14
2023-05-20T21:37:41.859Z,14.20
2023-05-20T21:40:09.479Z,14.23
2023-05-20T21:42:36.647Z,14.17
2023-05-20T21:45:04.060Z,14.19
2023-05-20T21:47:31.374Z,14.11
2023-05-20T21:49:58.780Z,13.94
2023-05-20T21:52:25.780Z,13.66
2023-05-20T21:54:52.876Z,14.01
2023-05-20T21:57:19.914Z,13.86
2023-05-20T21:59:46.936Z,13.59
2023-05-20T22:02:13.870Z,13.65
2023-05-20T22:04:40.864Z,13.71
2023-05-20T22:07:09.653Z,13.91
2023-05-20T22:09:36.710Z,13.94
2023-05-20T22:12:03.941Z,14.00
2023-05-20T22:14:31.019Z,13.86
2023-05-20T22:16:58.742Z,14.24
2023-05-20T22:19:26.868Z,14.52
2023-05-20T22:21:53.960Z,13.96
2023-05-20T22:24:21.119Z,13.88
2023-05-20T22:26:48.126Z,13.87
2023-05-20T22:29:15.157Z,13.84
2023-05-20T22:31:42.290Z,13.90
2023-05-20T22:34:09.346Z,13.84
2023-05-20T22:36:37.564Z,13.82
2023-05-20T22:39:04.960Z,13.91
2023-05-20T22:41:32.157Z,13.60
2023-05-20T22:43:59.172Z,13.61
2023-05-20T22:46:26.410Z,13.29
2023-05-20T22:48:54.656Z,13.14
2023-05-20T22:51:21.815Z,13.29
2023-05-20T22:53:48.989Z,13.23
2023-05-20T22:56:16.357Z,13.41
2023-05-20T22:58:43.843Z,13.69
2023-05-20T23:01:10.923Z,13.02
2023-05-20T23:03:38.265Z,13.03
2023-05-20T23:06:05.558Z,12.98
2023-05-20T23:08:32.509Z,13.01
2023-05-20T23:10:59.467Z,12.95
2023-05-20T23:13:26.619Z,12.92
2023-05-20T23:15:54.526Z,12.79
2023-05-20T23:18:21.682Z,12.80
2023-05-20T23:20:48.833Z,12.77
2023-05-20T23:23:16.536Z,12.76
2023-05-20T23:25:45.848Z,12.76
2023-05-20T23:28:13.140Z,12.68
2023-05-20T23:30:40.106Z,12.60
2023-05-20T23:33:07.324Z,12.87
2023-05-20T23:35:34.795Z,13.69
2023-05-20T23:38:02.767Z,14.16
2023-05-20T23:40:29.844Z,13.22
2023-05-20T23:42:56.779Z,12.64
2023-05-20T23:45:24.612Z,12.62
2023-05-20T23:47:51.965Z,13.21
2023-05-20T23:50:19.120Z,13.18
2023-05-20T23:52:46.436Z,12.64
2023-05-20T23:55:14.414Z,12.99
2023-05-20T23:57:41.574Z,12.61
